createdAt,value
2018-08-04T00:00:13.328Z,17.15
2018-08-04T00:02:41.629Z,16.73
2018-08-04T00:05:10.862Z,16.75
2018-08-04T00:07:39.728Z,16.60
2018-08-04T00:10:17.505Z,15.90
2018-08-04T00:12:47.366Z,16.70
2018-08-04T00:15:15.861Z,15.75
2018-08-04T00:17:44.453Z,16.35
2018-08-04T00:20:12.874Z,19.00
2018-08-04T00:22:41.211Z,16.62
2018-08-04T00:25:09.560Z,17.55
2018-08-04T00:27:37.914Z,17.95
2018-08-04T00:30:08.548Z,18.27
2018-08-04T00:32:36.952Z,16.90
2018-08-04T00:35:05.656Z,17.62
2018-08-04T00:37:33.966Z,17.67
2018-08-04T00:40:02.297Z,17.42
2018-08-04T00:42:30.606Z,17.30
2018-08-04T00:44:58.681Z,16.82
2018-08-04T00:47:27.033Z,18.15
2018-08-04T00:49:55.334Z,18.48
2018-08-04T00:52:23.633Z,16.75
2018-08-04T00:54:52.112Z,18.00
2018-08-04T00:57:20.544Z,17.60
2018-08-04T00:59:48.808Z,17.10
2018-08-04T01:02:17.202Z,16.85
2018-08-04T01:04:45.483Z,18.23
2018-08-04T01:07:13.782Z,17.80
2018-08-04T01:09:42.111Z,17.02
2018-08-04T01:12:10.423Z,17.32
2018-08-04T01:14:38.706Z,17.82
2018-08-04T01:17:07.083Z,17.70
2018-08-04T01:19:36.043Z,17.45
2018-08-04T01:22:04.434Z,18.37
2018-08-04T01:24:32.722Z,19.13
2018-08-04T01:27:01.010Z,18.48
2018-08-04T01:29:29.272Z,17.60
2018-08-04T01:31:57.359Z,17.27
2018-08-04T01:34:25.625Z,18.43
2018-08-04T01:36:53.923Z,18.82
2018-08-04T01:39:22.210Z,18.10
2018-08-04T01:41:50.582Z,19.30
2018-08-04T01:44:18.976Z,19.03
2018-08-04T01:46:47.277Z,18.62
2018-08-04T01:49:15.561Z,18.53
2018-08-04T01:51:43.896Z,19.60
2018-08-04T01:54:12.187Z,18.77
2018-08-04T01:56:40.488Z,18.97
2018-08-04T01:59:08.768Z,19.27
2018-08-04T02:01:37.316Z,19.40
2018-08-04T02:04:05.624Z,19.83
2018-08-04T02:06:33.916Z,19.40
2018-08-04T02:09:01.983Z,19.40
2018-08-04T02:11:30.287Z,19.60
2018-08-04T02:13:58.590Z,18.97
2018-08-04T02:16:26.894Z,19.50
2018-08-04T02:18:55.184Z,20.83
2018-08-04T02:21:23.456Z,19.27
2018-08-04T02:23:51.740Z,19.43
2018-08-04T02:26:20.039Z,19.67
2018-08-04T02:28:48.319Z,20.37
2018-08-04T02:31:16.624Z,19.90
2018-08-04T02:33:44.920Z,19.00
2018-08-04T02:36:13.210Z,18.93
2018-08-04T02:38:41.569Z,20.13
2018-08-04T02:41:09.858Z,19.43
2018-08-04T02:43:38.176Z,20.03
2018-08-04T02:46:06.467Z,20.23
2018-08-04T02:48:34.868Z,20.10
2018-08-04T02:51:03.157Z,19.40
2018-08-04T02:53:31.456Z,20.57
2018-08-04T02:55:59.733Z,21.80
2018-08-04T02:58:28.070Z,20.80
2018-08-04T03:00:56.329Z,19.83
2018-08-04T03:03:24.641Z,20.03
2018-08-04T03:05:52.942Z,21.17
2018-08-04T03:08:21.259Z,19.63
2018-08-04T03:10:49.555Z,20.00
2018-08-04T03:13:17.851Z,20.33
2018-08-04T03:15:46.170Z,20.33
2018-08-04T03:18:14.467Z,19.33
2018-08-04T03:20:42.760Z,19.83
2018-08-04T03:23:11.061Z,21.07
2018-08-04T03:25:39.386Z,20.13
2018-08-04T03:28:07.676Z,20.30
2018-08-04T03:30:35.960Z,19.10
2018-08-04T03:33:04.375Z,19.30
2018-08-04T03:35:32.646Z,20.50
2018-08-04T03:38:00.947Z,20.10
2018-08-04T03:40:29.245Z,19.93
2018-08-04T03:42:57.580Z,19.53
2018-08-04T03:45:25.936Z,20.70
2018-08-04T03:47:54.242Z,18.87
2018-08-04T03:50:22.513Z,20.50
2018-08-04T03:52:50.797Z,21.07
2018-08-04T03:55:18.844Z,21.27
2018-08-04T03:57:47.363Z,20.90
2018-08-04T04:00:15.677Z,21.07
2018-08-04T04:02:43.982Z,19.80
2018-08-04T04:05:12.245Z,20.00
2018-08-04T04:07:40.557Z,19.37
2018-08-04T04:10:08.940Z,20.43
2018-08-04T04:12:37.251Z,21.43
2018-08-04T04:15:06.475Z,21.00
2018-08-04T04:17:41.683Z,19.53
2018-08-04T04:20:09.980Z,20.12
2018-08-04T04:22:38.250Z,21.13
2018-08-04T04:25:06.578Z,20.20
2018-08-04T04:27:35.104Z,20.17
2018-08-04T04:30:03.466Z,20.12
2018-08-04T04:32:31.875Z,19.20
2018-08-04T04:35:00.298Z,20.68
2018-08-04T04:37:28.706Z,20.35
2018-08-04T04:39:57.008Z,22.52
2018-08-04T04:42:25.295Z,20.82
2018-08-04T04:44:53.679Z,20.92
2018-08-04T04:47:21.970Z,21.40
2018-08-04T04:49:50.271Z,22.22
2018-08-04T04:52:18.576Z,21.95
2018-08-04T04:54:46.958Z,21.65
2018-08-04T04:57:15.258Z,21.17
2018-08-04T04:59:43.573Z,22.02
2018-08-04T05:02:11.875Z,21.42
2018-08-04T05:04:40.190Z,20.92
2018-08-04T05:07:08.527Z,21.02
2018-08-04T05:09:36.911Z,22.62
2018-08-04T05:12:05.253Z,26.15
2018-08-04T05:14:33.547Z,24.20
2018-08-04T05:17:01.835Z,28.65
2018-08-04T05:19:30.251Z,26.02
2018-08-04T05:21:58.556Z,26.90
2018-08-04T05:24:26.895Z,33.08
2018-08-04T05:26:55.164Z,29.30
2018-08-04T05:29:23.443Z,25.17
2018-08-04T05:31:51.737Z,38.07
2018-08-04T05:34:20.025Z,31.90
2018-08-04T05:36:48.332Z,28.20
2018-08-04T05:39:16.628Z,28.85
2018-08-04T05:41:44.938Z,27.27
2018-08-04T05:44:13.320Z,29.70
2018-08-04T05:46:41.630Z,30.23
2018-08-04T05:49:09.954Z,27.87
2018-08-04T05:51:38.294Z,25.87
2018-08-04T05:54:06.622Z,27.37
2018-08-04T05:56:34.903Z,28.83
2018-08-04T05:59:03.250Z,26.52
2018-08-04T06:01:31.645Z,28.20
2018-08-04T06:03:59.937Z,40.23
2018-08-04T06:06:28.286Z,27.32
2018-08-04T06:08:56.783Z,27.32
2018-08-04T06:11:25.268Z,26.40
2018-08-04T06:13:53.555Z,25.68
2018-08-04T06:16:21.939Z,22.05
2018-08-04T06:18:50.485Z,24.47
2018-08-04T06:21:18.882Z,23.87
2018-08-04T06:23:47.372Z,21.95
2018-08-04T06:26:15.758Z,24.18
2018-08-04T06:28:44.084Z,24.90
2018-08-04T06:31:12.398Z,24.50
2018-08-04T06:33:40.965Z,27.48
2018-08-04T06:36:09.361Z,29.00
2018-08-04T06:38:37.795Z,31.87
2018-08-04T06:41:06.198Z,30.95
2018-08-04T06:43:34.524Z,30.45
2018-08-04T06:46:02.839Z,29.30
2018-08-04T06:48:31.229Z,29.32
2018-08-04T06:50:59.681Z,27.55
2018-08-04T06:53:28.011Z,27.58
2018-08-04T06:55:56.344Z,28.35
2018-08-04T06:58:24.798Z,25.57
2018-08-04T07:00:53.202Z,26.50
2018-08-04T07:03:21.584Z,25.05
2018-08-04T07:05:49.898Z,25.82
2018-08-04T07:08:18.203Z,24.20
2018-08-04T07:10:46.574Z,24.15
2018-08-04T07:13:14.892Z,24.57
2018-08-04T07:15:43.190Z,22.42
2018-08-04T07:18:11.530Z,22.50
2018-08-04T07:20:39.936Z,23.05
2018-08-04T07:23:08.215Z,24.45
2018-08-04T07:25:36.616Z,23.18
2018-08-04T07:28:05.055Z,24.37
2018-08-04T07:30:33.475Z,23.55
2018-08-04T07:33:01.776Z,24.37
2018-08-04T07:35:30.159Z,86.50
2018-08-04T07:37:58.218Z,25.62
2018-08-04T07:40:26.565Z,24.25
2018-08-04T07:42:54.897Z,26.93
2018-08-04T07:45:23.195Z,25.32
2018-08-04T07:47:51.502Z,23.83
2018-08-04T07:50:19.962Z,25.97
2018-08-04T07:52:48.466Z,25.00
2018-08-04T07:55:16.760Z,26.80
2018-08-04T07:57:45.077Z,26.30
2018-08-04T08:00:13.409Z,23.87
2018-08-04T08:02:41.968Z,24.40
2018-08-04T08:05:11.074Z,24.77
2018-08-04T08:07:39.409Z,26.07
2018-08-04T08:10:07.709Z,21.62
2018-08-04T08:12:36.047Z,22.93
2018-08-04T08:15:05.054Z,22.52
2018-08-04T08:17:33.339Z,19.73
2018-08-04T08:20:01.685Z,21.17
2018-08-04T08:22:37.079Z,21.55
2018-08-04T08:25:05.704Z,21.12
2018-08-04T08:27:34.079Z,18.25
2018-08-04T08:30:02.504Z,18.27
2018-08-04T08:32:30.918Z,16.55
2018-08-04T08:34:59.597Z,16.57
2018-08-04T08:37:27.901Z,14.95
2018-08-04T08:39:56.316Z,13.88
2018-08-04T08:42:24.683Z,14.90
2018-08-04T08:44:53.320Z,14.53
2018-08-04T08:47:21.705Z,12.13
2018-08-04T08:49:50.021Z,11.28
2018-08-04T08:52:18.332Z,14.35
2018-08-04T08:54:46.803Z,15.75
2018-08-04T08:57:15.115Z,15.63
2018-08-04T08:59:43.469Z,12.78
2018-08-04T09:02:11.793Z,13.65
2018-08-04T09:04:40.106Z,13.88
2018-08-04T09:07:08.437Z,13.10
2018-08-04T09:09:36.803Z,13.35
2018-08-04T09:12:05.173Z,13.78
2018-08-04T09:14:33.782Z,13.50
2018-08-04T09:17:02.220Z,13.53
2018-08-04T09:19:30.607Z,13.30
2018-08-04T09:22:00.669Z,11.78
2018-08-04T09:24:28.948Z,11.65
2018-08-04T09:26:57.267Z,10.32
2018-08-04T09:29:25.667Z,11.20
2018-08-04T09:31:53.986Z,10.78
2018-08-04T09:34:22.300Z,11.45
2018-08-04T09:36:50.911Z,10.45
2018-08-04T09:39:19.194Z,10.55
2018-08-04T09:41:47.520Z,10.60
2018-08-04T09:44:15.790Z,10.85
2018-08-04T09:46:44.102Z,9.75
2018-08-04T09:49:12.396Z,10.08
2018-08-04T09:51:40.796Z,8.83
2018-08-04T09:54:09.085Z,8.55
2018-08-04T09:56:37.369Z,9.05
2018-08-04T09:59:05.678Z,9.88
2018-08-04T10:01:36.682Z,9.65
2018-08-04T10:04:05.184Z,9.38
2018-08-04T10:06:33.831Z,18.30
2018-08-04T10:09:02.201Z,10.18
2018-08-04T10:11:30.567Z,9.80
2018-08-04T10:13:58.954Z,9.25
2018-08-04T10:16:27.239Z,8.90
2018-08-04T10:18:55.573Z,8.65
2018-08-04T10:21:23.864Z,8.65
2018-08-04T10:23:52.168Z,8.65
2018-08-04T10:26:20.489Z,10.38
2018-08-04T10:28:48.791Z,10.03
2018-08-04T10:31:17.073Z,9.48
2018-08-04T10:33:45.412Z,8.40
2018-08-04T10:36:13.738Z,9.23
2018-08-04T10:38:42.148Z,8.13
2018-08-04T10:41:10.426Z,8.95
2018-08-04T10:43:38.834Z,9.30
2018-08-04T10:46:07.213Z,8.60
2018-08-04T10:48:35.595Z,8.20
2018-08-04T10:51:04.010Z,8.20
2018-08-04T10:53:32.444Z,8.75
2018-08-04T10:56:00.744Z,8.68
2018-08-04T10:58:35.439Z,7.87
2018-08-04T11:01:09.924Z,7.50
2018-08-04T11:03:44.315Z,8.23
2018-08-04T11:06:19.759Z,7.65
2018-08-04T11:08:54.062Z,9.05
2018-08-04T11:11:22.553Z,10.20
2018-08-04T11:13:50.900Z,8.85
2018-08-04T11:16:19.356Z,29.20
2018-08-04T11:18:47.690Z,8.38
2018-08-04T11:21:15.981Z,8.48
2018-08-04T11:23:44.276Z,9.05
2018-08-04T11:26:12.631Z,9.08
2018-08-04T11:28:40.925Z,7.95
2018-08-04T11:31:09.273Z,8.70
2018-08-04T11:33:37.587Z,8.85
2018-08-04T11:36:06.029Z,7.35
2018-08-04T11:38:34.392Z,8.33
2018-08-04T11:41:02.674Z,9.50
2018-08-04T11:43:30.975Z,8.93
2018-08-04T11:45:59.257Z,8.65
2018-08-04T11:48:27.551Z,9.38
2018-08-04T11:50:55.821Z,10.63
2018-08-04T11:53:24.142Z,8.33
2018-08-04T11:55:52.458Z,10.13
2018-08-04T11:58:20.802Z,8.18
2018-08-04T12:00:49.107Z,9.45
2018-08-04T12:03:17.488Z,8.63
2018-08-04T12:05:50.249Z,8.35
2018-08-04T12:08:18.550Z,8.10
2018-08-04T12:10:46.831Z,8.30
2018-08-04T12:13:15.205Z,8.45
2018-08-04T12:15:43.493Z,8.15
2018-08-04T12:18:11.845Z,8.33
2018-08-04T12:20:40.121Z,13.90
2018-08-04T12:23:08.445Z,13.20
2018-08-04T12:25:36.770Z,9.88
2018-08-04T12:28:05.064Z,8.70
2018-08-04T12:30:33.376Z,9.05
2018-08-04T12:33:01.660Z,8.50
2018-08-04T12:35:29.946Z,8.40
2018-08-04T12:37:58.256Z,8.85
2018-08-04T12:40:26.314Z,8.48
2018-08-04T12:42:54.599Z,8.18
2018-08-04T12:45:22.923Z,7.95
2018-08-04T12:47:51.201Z,8.70
2018-08-04T12:50:19.621Z,8.30
2018-08-04T12:52:47.888Z,7.87
2018-08-04T12:55:16.221Z,8.03
2018-08-04T12:57:44.677Z,8.08
2018-08-04T13:00:13.032Z,7.72
2018-08-04T13:02:41.333Z,8.55
2018-08-04T13:05:09.713Z,9.75
2018-08-04T13:07:38.012Z,8.33
2018-08-04T13:10:06.443Z,9.60
2018-08-04T13:12:34.840Z,8.15
2018-08-04T13:15:03.240Z,7.85
2018-08-04T13:17:31.579Z,8.30
2018-08-04T13:19:59.879Z,10.40
2018-08-04T13:22:28.251Z,7.92
2018-08-04T13:24:56.657Z,9.65
2018-08-04T13:27:24.938Z,7.78
2018-08-04T13:29:52.981Z,10.88
2018-08-04T13:32:21.265Z,8.63
2018-08-04T13:34:49.671Z,12.90
2018-08-04T13:37:18.249Z,9.00
2018-08-04T13:39:46.621Z,8.43
2018-08-04T13:42:14.980Z,8.95
2018-08-04T13:44:43.393Z,8.00
2018-08-04T13:47:11.772Z,15.98
2018-08-04T13:49:40.156Z,7.70
2018-08-04T13:52:08.540Z,7.97
2018-08-04T13:54:36.938Z,8.70
2018-08-04T13:57:05.310Z,9.18
2018-08-04T13:59:33.632Z,9.33
2018-08-04T14:02:02.007Z,9.10
2018-08-04T14:04:30.462Z,11.43
2018-08-04T14:06:58.480Z,9.63
2018-08-04T14:09:26.785Z,9.38
2018-08-04T14:11:55.080Z,15.55
2018-08-04T14:14:23.479Z,9.85
2018-08-04T14:16:51.933Z,11.40
2018-08-04T14:19:20.342Z,13.08
2018-08-04T14:21:48.697Z,11.68
2018-08-04T14:24:17.081Z,9.33
2018-08-04T14:26:45.522Z,9.23
2018-08-04T14:29:13.893Z,9.58
2018-08-04T14:31:42.310Z,9.08
2018-08-04T14:34:10.614Z,9.03
2018-08-04T14:36:39.006Z,11.93
2018-08-04T14:39:11.019Z,9.35
2018-08-04T14:41:39.492Z,12.58
2018-08-04T14:44:08.074Z,10.65
2018-08-04T14:46:36.662Z,10.80
2018-08-04T14:49:06.223Z,11.78
2018-08-04T14:51:34.579Z,10.60
2018-08-04T14:54:02.910Z,9.25
2018-08-04T14:56:31.281Z,8.80
2018-08-04T14:58:59.721Z,9.13
2018-08-04T15:01:28.154Z,8.93
2018-08-04T15:03:56.502Z,8.65
2018-08-04T15:06:24.815Z,7.53
2018-08-04T15:08:53.193Z,7.47
2018-08-04T15:11:21.612Z,7.42
2018-08-04T15:13:49.961Z,7.87
2018-08-04T15:16:18.296Z,6.75
2018-08-04T15:18:46.669Z,7.55
2018-08-04T15:21:14.965Z,7.53
2018-08-04T15:23:43.374Z,8.95
2018-08-04T15:26:11.729Z,7.37
2018-08-04T15:28:40.018Z,7.40
2018-08-04T15:31:08.302Z,8.65
2018-08-04T15:33:36.638Z,8.55
2018-08-04T15:36:05.263Z,9.28
2018-08-04T15:38:33.697Z,8.48
2018-08-04T15:41:02.023Z,8.70
2018-08-04T15:43:30.394Z,9.03
2018-08-04T15:45:58.910Z,7.42
2018-08-04T15:48:27.557Z,9.13
2018-08-04T15:50:56.699Z,9.40
2018-08-04T15:53:25.043Z,8.53
2018-08-04T15:55:53.519Z,10.90
2018-08-04T15:58:21.846Z,21.17
2018-08-04T16:00:50.313Z,8.25
2018-08-04T16:03:18.659Z,8.78
2018-08-04T16:05:47.371Z,9.23
2018-08-04T16:08:16.105Z,8.73
2018-08-04T16:10:44.823Z,9.55
2018-08-04T16:13:13.096Z,8.23
2018-08-04T16:15:41.370Z,8.45
2018-08-04T16:18:10.007Z,8.55
2018-08-04T16:20:38.726Z,8.33
2018-08-04T16:23:07.633Z,7.78
2018-08-04T16:25:35.919Z,8.53
2018-08-04T16:28:04.196Z,7.95
2018-08-04T16:30:32.576Z,8.73
2018-08-04T16:33:00.868Z,8.25
2018-08-04T16:35:29.170Z,8.23
2018-08-04T16:37:57.626Z,8.78
2018-08-04T16:40:26.238Z,8.13
2018-08-04T16:42:54.656Z,8.48
2018-08-04T16:45:22.952Z,8.18
2018-08-04T16:47:51.470Z,8.65
2018-08-04T16:50:19.761Z,7.95
2018-08-04T16:52:48.143Z,8.63
2018-08-04T16:55:16.439Z,9.03
2018-08-04T16:57:44.991Z,8.38
2018-08-04T17:00:13.273Z,8.10
2018-08-04T17:02:41.572Z,8.43
2018-08-04T17:05:10.092Z,9.10
2018-08-04T17:07:38.387Z,8.35
2018-08-04T17:10:06.701Z,9.05
2018-08-04T17:12:34.999Z,8.85
2018-08-04T17:15:03.486Z,8.68
2018-08-04T17:17:31.789Z,8.40
2018-08-04T17:20:00.079Z,9.18
2018-08-04T17:22:28.385Z,8.00
2018-08-04T17:24:56.684Z,10.45
2018-08-04T17:27:25.003Z,8.45
2018-08-04T17:29:53.290Z,8.15
2018-08-04T17:32:21.597Z,9.48
2018-08-04T17:34:49.967Z,8.15
2018-08-04T17:37:18.363Z,7.92
2018-08-04T17:39:46.657Z,8.65
2018-08-04T17:42:15.033Z,8.28
2018-08-04T17:44:43.363Z,12.07
2018-08-04T17:47:11.746Z,8.08
2018-08-04T17:49:40.075Z,7.87
2018-08-04T17:52:08.451Z,8.10
2018-08-04T17:54:36.739Z,7.92
2018-08-04T17:57:05.146Z,8.43
2018-08-04T17:59:33.458Z,11.90
2018-08-04T18:02:01.799Z,9.08
2018-08-04T18:04:30.143Z,14.75
2018-08-04T18:06:58.496Z,14.10
2018-08-04T18:09:26.875Z,17.90
2018-08-04T18:11:55.355Z,11.75
2018-08-04T18:14:23.716Z,10.65
2018-08-04T18:16:52.061Z,7.87
2018-08-04T18:19:20.427Z,8.05
2018-08-04T18:21:48.754Z,8.10
2018-08-04T18:24:17.071Z,10.93
2018-08-04T18:26:45.390Z,7.80
2018-08-04T18:29:13.716Z,8.40
2018-08-04T18:31:42.164Z,7.37
2018-08-04T18:34:10.593Z,8.73
2018-08-04T18:36:38.892Z,8.43
2018-08-04T18:39:07.698Z,8.50
2018-08-04T18:41:35.975Z,10.28
2018-08-04T18:44:04.410Z,8.70
2018-08-04T18:46:32.683Z,9.60
2018-08-04T18:49:01.032Z,9.15
2018-08-04T18:51:29.329Z,9.98
2018-08-04T18:53:57.615Z,10.13
2018-08-04T18:56:25.911Z,9.33
2018-08-04T18:58:54.189Z,9.48
2018-08-04T19:01:22.457Z,9.53
2018-08-04T19:03:50.776Z,9.20
2018-08-04T19:06:19.076Z,14.73
2018-08-04T19:08:47.393Z,10.98
2018-08-04T19:11:15.718Z,8.50
2018-08-04T19:13:44.033Z,13.40
2018-08-04T19:16:12.388Z,19.05
2018-08-04T19:18:40.667Z,12.70
2018-08-04T19:21:08.935Z,10.75
2018-08-04T19:23:37.237Z,9.53
2018-08-04T19:26:05.524Z,9.25
2018-08-04T19:28:33.934Z,9.50
2018-08-04T19:31:02.216Z,9.65
2018-08-04T19:33:30.590Z,10.10
2018-08-04T19:35:58.899Z,11.40
2018-08-04T19:38:27.171Z,11.08
2018-08-04T19:40:55.487Z,12.20
2018-08-04T19:43:23.812Z,10.58
2018-08-04T19:45:57.498Z,10.75
2018-08-04T19:48:25.811Z,12.33
2018-08-04T19:50:54.237Z,14.07
2018-08-04T19:53:22.516Z,10.58
2018-08-04T19:55:50.813Z,15.25
2018-08-04T19:58:19.089Z,16.32
2018-08-04T20:00:47.891Z,11.43
2018-08-04T20:03:16.290Z,17.05
2018-08-04T20:05:44.624Z,11.60
2018-08-04T20:08:12.918Z,15.03
2018-08-04T20:10:41.229Z,12.20
2018-08-04T20:13:09.521Z,11.57
2018-08-04T20:15:37.808Z,19.32
2018-08-04T20:18:06.146Z,11.60
2018-08-04T20:20:34.429Z,11.63
2018-08-04T20:23:02.796Z,11.43
2018-08-04T20:25:31.123Z,12.15
2018-08-04T20:27:59.413Z,12.33
2018-08-04T20:30:27.748Z,12.28
2018-08-04T20:32:56.033Z,11.90
2018-08-04T20:35:24.383Z,11.38
2018-08-04T20:37:52.799Z,13.00
2018-08-04T20:40:21.105Z,13.25
2018-08-04T20:42:49.440Z,11.88
2018-08-04T20:45:17.741Z,15.30
2018-08-04T20:47:46.097Z,12.68
2018-08-04T20:50:14.415Z,11.90
2018-08-04T20:52:42.748Z,12.80
2018-08-04T20:55:11.084Z,12.58
2018-08-04T20:57:39.385Z,12.30
2018-08-04T21:00:07.712Z,11.78
2018-08-04T21:02:35.990Z,11.55
2018-08-04T21:05:04.043Z,12.90
2018-08-04T21:07:32.321Z,11.55
2018-08-04T21:10:00.654Z,11.70
2018-08-04T21:12:28.970Z,11.63
2018-08-04T21:14:57.261Z,14.63
2018-08-04T21:17:25.287Z,13.20
2018-08-04T21:19:53.669Z,11.95
2018-08-04T21:22:22.559Z,11.60
2018-08-04T21:24:51.015Z,10.88
2018-08-04T21:27:19.437Z,11.20
2018-08-04T21:29:47.724Z,10.72
2018-08-04T21:32:16.033Z,10.10
2018-08-04T21:34:44.341Z,10.75
2018-08-04T21:37:12.693Z,11.30
2018-08-04T21:39:40.990Z,10.82
2018-08-04T21:42:09.335Z,12.73
2018-08-04T21:44:37.661Z,9.70
2018-08-04T21:47:06.195Z,9.83
2018-08-04T21:49:34.575Z,10.82
2018-08-04T21:52:02.845Z,10.50
2018-08-04T21:54:31.163Z,10.93
2018-08-04T21:56:59.453Z,10.13
2018-08-04T21:59:27.752Z,10.43
2018-08-04T22:02:03.070Z,10.35
2018-08-04T22:04:31.473Z,10.85
2018-08-04T22:07:35.507Z,10.38
2018-08-04T22:10:04.200Z,10.95
2018-08-04T22:12:32.518Z,11.55
2018-08-04T22:15:00.906Z,10.82
2018-08-04T22:17:29.199Z,10.75
2018-08-04T22:19:57.467Z,9.78
2018-08-04T22:22:26.698Z,10.25
2018-08-04T22:24:55.097Z,10.48
2018-08-04T22:27:23.401Z,10.88
2018-08-04T22:29:51.827Z,11.78
2018-08-04T22:32:20.274Z,12.70
2018-08-04T22:34:48.603Z,11.95
2018-08-04T22:37:16.917Z,10.35
2018-08-04T22:39:45.254Z,10.43
2018-08-04T22:42:13.567Z,10.40
2018-08-04T22:44:53.286Z,12.00
2018-08-04T22:47:21.590Z,12.60
2018-08-04T22:49:49.900Z,14.47
2018-08-04T22:52:18.188Z,11.22
2018-08-04T22:54:46.513Z,11.57
2018-08-04T22:57:14.814Z,12.60
2018-08-04T22:59:43.138Z,11.78
2018-08-04T23:02:11.483Z,11.12
2018-08-04T23:04:39.803Z,11.33
2018-08-04T23:07:08.112Z,11.48
2018-08-04T23:09:36.384Z,11.20
2018-08-04T23:12:04.690Z,10.08
2018-08-04T23:14:32.946Z,9.88
2018-08-04T23:17:01.240Z,9.70
2018-08-04T23:19:29.516Z,11.80
2018-08-04T23:21:57.853Z,10.05
2018-08-04T23:24:26.193Z,11.12
2018-08-04T23:26:54.492Z,11.00
2018-08-04T23:29:22.826Z,10.75
2018-08-04T23:31:51.148Z,11.35
2018-08-04T23:34:19.402Z,11.55
2018-08-04T23:36:47.714Z,11.35
2018-08-04T23:39:15.994Z,10.55
2018-08-04T23:41:44.400Z,11.18
2018-08-04T23:44:12.772Z,11.57
2018-08-04T23:46:41.053Z,11.25
2018-08-04T23:49:09.369Z,10.90
2018-08-04T23:51:37.661Z,12.03
2018-08-04T23:54:05.970Z,11.65
2018-08-04T23:56:34.279Z,11.50
2018-08-04T23:59:02.585Z,11.18
